createdAt,value
2024-04-30T00:00:19.707Z,19.07
2024-04-30T00:01:19.864Z,22.12
2024-04-30T00:02:19.687Z,21.28
2024-04-30T00:03:19.686Z,21.77
2024-04-30T00:04:19.750Z,21.21
2024-04-30T00:05:19.731Z,21.63
2024-04-30T00:06:19.628Z,22.47
2024-04-30T00:07:19.635Z,21.70
2024-04-30T00:08:19.604Z,21.14
2024-04-30T00:09:19.600Z,21.98
2024-04-30T00:10:19.662Z,21.56
2024-04-30T00:11:19.577Z,21.42
2024-04-30T00:12:19.548Z,22.33
2024-04-30T00:13:19.604Z,22.40
2024-04-30T00:14:19.521Z,22.33
2024-04-30T00:15:19.534Z,21.84
2024-04-30T00:16:19.529Z,22.19
2024-04-30T00:17:19.481Z,21.00
2024-04-30T00:18:19.468Z,20.71
2024-04-30T00:19:19.521Z,21.49
2024-04-30T00:20:19.437Z,20.93
2024-04-30T00:21:19.428Z,21.42
2024-04-30T00:22:19.471Z,21.00
2024-04-30T00:23:19.399Z,19.79
2024-04-30T00:24:19.394Z,20.71
2024-04-30T00:25:19.380Z,21.28
2024-04-30T00:26:19.361Z,20.29
2024-04-30T00:27:19.347Z,20.36
2024-04-30T00:28:19.350Z,18.20
2024-04-30T00:29:19.324Z,21.14
2024-04-30T00:30:19.335Z,17.18
2024-04-30T00:31:19.341Z,19.93
2024-04-30T00:32:19.354Z,20.64
2024-04-30T00:33:19.391Z,20.08
2024-04-30T00:34:19.275Z,20.01
2024-04-30T00:35:19.256Z,21.49
2024-04-30T00:36:19.232Z,20.71
2024-04-30T00:37:19.248Z,21.35
2024-04-30T00:38:19.204Z,22.05
2024-04-30T00:39:19.190Z,20.15
2024-04-30T00:40:19.215Z,20.43
2024-04-30T00:41:19.162Z,20.43
2024-04-30T00:42:19.158Z,19.86
2024-04-30T00:43:19.253Z,19.86
2024-04-30T00:44:19.126Z,19.79
2024-04-30T00:45:19.140Z,20.01
2024-04-30T00:46:19.190Z,20.57
2024-04-30T00:47:19.154Z,20.50
2024-04-30T00:48:19.147Z,19.07
2024-04-30T00:49:19.110Z,18.93
2024-04-30T00:50:19.050Z,19.00
2024-04-30T00:51:19.044Z,19.36
2024-04-30T00:52:19.046Z,18.93
2024-04-30T00:53:19.003Z,18.50
2024-04-30T00:54:18.996Z,18.57
2024-04-30T00:55:18.990Z,18.64
2024-04-30T00:56:19.026Z,18.86
2024-04-30T00:57:18.951Z,18.35
2024-04-30T00:58:18.999Z,17.84
2024-04-30T00:59:18.929Z,17.84
2024-04-30T01:00:18.916Z,16.73
2024-04-30T01:01:18.989Z,16.05
2024-04-30T01:02:18.982Z,17.32
2024-04-30T01:03:19.047Z,17.03
2024-04-30T01:04:18.890Z,16.65
2024-04-30T01:05:18.846Z,15.98
2024-04-30T01:06:18.839Z,17.25
2024-04-30T01:07:18.871Z,16.13
2024-04-30T01:08:18.820Z,15.06
2024-04-30T01:09:18.793Z,15.14
2024-04-30T01:10:18.813Z,15.14
2024-04-30T01:11:18.780Z,15.06
2024-04-30T01:12:18.757Z,15.22
2024-04-30T01:13:18.863Z,14.29
2024-04-30T01:14:18.727Z,16.05
2024-04-30T01:15:18.709Z,15.29
2024-04-30T01:16:18.729Z,16.43
2024-04-30T01:17:18.721Z,15.14
2024-04-30T01:18:18.673Z,15.75
2024-04-30T01:19:18.691Z,15.37
2024-04-30T01:20:18.648Z,15.45
2024-04-30T01:21:18.643Z,14.98
2024-04-30T01:22:18.669Z,14.98
2024-04-30T01:23:18.625Z,14.36
2024-04-30T01:24:18.595Z,14.98
2024-04-30T01:25:18.633Z,14.52
2024-04-30T01:26:18.567Z,14.98
2024-04-30T01:27:18.547Z,14.36
2024-04-30T01:28:18.674Z,14.21
2024-04-30T01:29:18.520Z,14.68
2024-04-30T01:30:18.510Z,15.60
2024-04-30T01:31:18.526Z,15.75
2024-04-30T01:32:18.516Z,14.68
2024-04-30T01:33:18.485Z,12.61
2024-04-30T01:34:18.492Z,13.73
2024-04-30T01:35:18.440Z,14.36
2024-04-30T01:36:18.432Z,14.13
2024-04-30T01:37:18.541Z,13.97
2024-04-30T01:38:18.401Z,15.60
2024-04-30T01:39:18.412Z,14.44
2024-04-30T01:40:18.480Z,13.50
2024-04-30T01:41:18.360Z,12.77
2024-04-30T01:42:18.345Z,13.73
2024-04-30T01:43:18.352Z,14.29
2024-04-30T01:44:18.318Z,14.13
2024-04-30T01:45:18.301Z,14.68
2024-04-30T01:46:18.302Z,15.90
2024-04-30T01:47:18.280Z,13.89
2024-04-30T01:48:18.386Z,14.05
2024-04-30T01:49:18.282Z,14.98
2024-04-30T01:50:18.244Z,13.73
2024-04-30T01:51:18.231Z,13.50
2024-04-30T01:52:18.251Z,13.50
2024-04-30T01:53:18.205Z,13.26
2024-04-30T01:54:18.185Z,13.73
2024-04-30T01:55:18.224Z,13.97
2024-04-30T01:56:18.163Z,15.06
2024-04-30T01:57:18.144Z,13.26
2024-04-30T01:58:18.157Z,14.05
2024-04-30T01:59:18.143Z,14.83
2024-04-30T02:00:18.101Z,14.36
2024-04-30T02:01:18.213Z,13.66
2024-04-30T02:02:18.128Z,15.14
2024-04-30T02:03:18.112Z,14.83
2024-04-30T02:04:18.098Z,14.60
2024-04-30T02:05:24.422Z,14.29
2024-04-30T02:06:18.051Z,15.83
2024-04-30T02:07:18.166Z,13.73
2024-04-30T02:08:17.996Z,13.89
2024-04-30T02:09:17.979Z,14.75
2024-04-30T02:10:17.970Z,15.14
2024-04-30T02:11:18.015Z,14.60
2024-04-30T02:12:17.936Z,15.06
2024-04-30T02:13:17.975Z,15.37
2024-04-30T02:14:17.911Z,16.05
2024-04-30T02:15:17.915Z,15.06
2024-04-30T02:16:17.963Z,15.52
2024-04-30T02:17:17.936Z,15.22
2024-04-30T02:18:17.870Z,14.44
2024-04-30T02:19:17.864Z,14.68
2024-04-30T02:20:17.829Z,14.60
2024-04-30T02:21:17.818Z,13.89
2024-04-30T02:22:17.819Z,13.97
2024-04-30T02:23:17.795Z,13.97
2024-04-30T02:24:17.774Z,14.60
2024-04-30T02:25:17.819Z,14.21
2024-04-30T02:26:17.751Z,14.68
2024-04-30T02:27:17.752Z,14.29
2024-04-30T02:28:17.734Z,14.91
2024-04-30T02:29:17.713Z,14.36
2024-04-30T02:30:17.693Z,13.81
2024-04-30T02:31:17.712Z,14.68
2024-04-30T02:32:17.684Z,14.91
2024-04-30T02:33:17.697Z,14.44
2024-04-30T02:34:17.752Z,14.13
2024-04-30T02:35:17.627Z,15.29
2024-04-30T02:36:17.615Z,14.21
2024-04-30T02:37:17.623Z,14.98
2024-04-30T02:38:17.586Z,13.97
2024-04-30T02:39:17.570Z,15.52
2024-04-30T02:40:17.580Z,13.73
2024-04-30T02:41:17.540Z,14.60
2024-04-30T02:42:17.547Z,13.97
2024-04-30T02:43:17.559Z,14.05
2024-04-30T02:44:17.504Z,13.66
2024-04-30T02:45:17.488Z,11.04
2024-04-30T02:46:17.486Z,13.42
2024-04-30T02:47:17.497Z,14.21
2024-04-30T02:48:17.511Z,14.05
2024-04-30T02:49:17.464Z,14.44
2024-04-30T02:50:17.426Z,13.02
2024-04-30T02:51:17.413Z,13.18
2024-04-30T02:52:17.403Z,13.50
2024-04-30T02:53:17.383Z,13.34
2024-04-30T02:54:17.369Z,12.61
2024-04-30T02:55:17.377Z,14.44
2024-04-30T02:56:17.350Z,11.46
2024-04-30T02:57:17.327Z,13.97
2024-04-30T02:58:17.362Z,12.61
2024-04-30T02:59:17.316Z,9.76
2024-04-30T03:00:17.297Z,12.20
2024-04-30T03:01:17.368Z,11.79
2024-04-30T03:02:17.292Z,12.61
2024-04-30T03:03:17.247Z,11.96
2024-04-30T03:04:17.356Z,12.12
2024-04-30T03:05:17.220Z,10.54
2024-04-30T03:06:17.221Z,12.94
2024-04-30T03:07:17.209Z,12.69
2024-04-30T03:08:17.179Z,14.36
2024-04-30T03:09:17.168Z,12.61
2024-04-30T03:10:17.230Z,11.79
2024-04-30T03:11:17.164Z,11.63
2024-04-30T03:12:17.131Z,13.02
2024-04-30T03:13:17.155Z,11.63
2024-04-30T03:14:17.094Z,13.42
2024-04-30T03:15:18.117Z,12.77
2024-04-30T03:16:17.088Z,13.10
2024-04-30T03:17:17.106Z,13.26
2024-04-30T03:18:17.088Z,13.02
2024-04-30T03:19:17.031Z,13.58
2024-04-30T03:20:17.015Z,12.61
2024-04-30T03:21:17.000Z,11.38
2024-04-30T03:22:17.028Z,13.50
2024-04-30T03:23:16.997Z,13.02
2024-04-30T03:24:16.956Z,13.50
2024-04-30T03:25:16.995Z,12.20
2024-04-30T03:26:16.939Z,12.20
2024-04-30T03:27:16.919Z,11.79
2024-04-30T03:28:16.948Z,11.88
2024-04-30T03:29:16.891Z,12.20
2024-04-30T03:30:16.886Z,12.04
2024-04-30T03:31:16.916Z,13.89
2024-04-30T03:32:16.868Z,13.42
2024-04-30T03:33:16.975Z,12.69
2024-04-30T03:34:16.860Z,13.42
2024-04-30T03:35:16.812Z,11.96
2024-04-30T03:36:16.806Z,14.52
2024-04-30T03:37:16.840Z,13.97
2024-04-30T03:38:16.777Z,16.51
2024-04-30T03:39:16.764Z,15.52
2024-04-30T03:40:16.838Z,16.51
2024-04-30T03:41:16.727Z,11.63
2024-04-30T03:42:16.716Z,11.13
2024-04-30T03:43:16.736Z,7.99
2024-04-30T03:44:16.689Z,6.70
2024-04-30T03:45:16.697Z,5.18
2024-04-30T03:46:16.695Z,4.60
2024-04-30T03:47:16.698Z,3.20
2024-04-30T03:48:16.651Z,2.27
2024-04-30T03:49:16.657Z,1.22
2024-04-30T03:50:16.636Z,0.90
2024-04-30T03:51:16.606Z,0.58
2024-04-30T03:52:16.629Z,1.11
2024-04-30T03:53:16.583Z,1.85
2024-04-30T03:54:16.574Z,1.64
2024-04-30T03:55:16.575Z,1.96
2024-04-30T03:56:16.539Z,1.33
2024-04-30T03:57:16.526Z,1.85
2024-04-30T03:58:18.944Z,1.64
2024-04-30T03:59:16.500Z,1.11
2024-04-30T04:00:16.514Z,1.33
2024-04-30T04:01:16.515Z,1.33
2024-04-30T04:02:16.461Z,1.01
2024-04-30T04:03:16.463Z,1.33
2024-04-30T04:04:16.505Z,1.01
2024-04-30T04:05:16.425Z,0.90
2024-04-30T04:06:17.771Z,0.90
2024-04-30T04:07:16.464Z,1.33
2024-04-30T04:08:16.402Z,1.11
2024-04-30T04:09:16.379Z,1.33
2024-04-30T04:10:16.382Z,0.68
2024-04-30T04:11:16.416Z,1.01
2024-04-30T04:12:16.338Z,0.68
2024-04-30T04:13:16.379Z,0.79
2024-04-30T04:14:16.313Z,0.90
2024-04-30T04:15:16.319Z,1.22
2024-04-30T04:16:16.344Z,1.01
2024-04-30T04:17:16.395Z,0.68
2024-04-30T04:18:16.324Z,1.22
2024-04-30T04:19:16.328Z,1.33
2024-04-30T04:20:16.234Z,0.58
2024-04-30T04:21:18.980Z,1.01
2024-04-30T04:22:16.228Z,0.58
2024-04-30T04:23:16.196Z,1.33
2024-04-30T04:24:16.200Z,1.85
2024-04-30T04:25:16.208Z,1.43
2024-04-30T04:26:16.165Z,0.79
2024-04-30T04:27:16.154Z,1.11
2024-04-30T04:28:16.168Z,1.01
2024-04-30T04:29:16.121Z,1.54
2024-04-30T04:30:16.103Z,0.58
2024-04-30T04:31:16.114Z,0.47
2024-04-30T04:32:16.110Z,0.58
2024-04-30T04:33:16.086Z,0.79
2024-04-30T04:34:16.093Z,0.58
2024-04-30T04:35:16.069Z,0.79
2024-04-30T04:36:16.026Z,1.01
2024-04-30T04:37:16.070Z,0.47
2024-04-30T04:38:16.005Z,0.79
2024-04-30T04:39:15.990Z,0.79
2024-04-30T04:40:16.104Z,0.68
2024-04-30T04:41:15.968Z,1.01
2024-04-30T04:42:15.949Z,1.43
2024-04-30T04:43:15.954Z,1.01
2024-04-30T04:44:15.924Z,1.22
2024-04-30T04:45:15.916Z,1.22
2024-04-30T04:46:15.915Z,1.11
2024-04-30T04:47:15.925Z,1.01
2024-04-30T04:48:16.102Z,0.90
2024-04-30T04:49:15.879Z,0.90
2024-04-30T04:50:15.849Z,1.96
2024-04-30T04:51:15.849Z,1.64
2024-04-30T04:52:15.849Z,1.85
2024-04-30T04:53:15.814Z,2.79
2024-04-30T04:54:15.804Z,2.06
2024-04-30T04:55:15.806Z,2.17
2024-04-30T04:56:15.786Z,1.75
2024-04-30T04:57:15.762Z,1.85
2024-04-30T04:58:15.780Z,0.58
2024-04-30T04:59:15.756Z,1.54
2024-04-30T05:00:15.721Z,1.11
2024-04-30T05:01:15.777Z,2.48
2024-04-30T05:02:15.733Z,2.27
2024-04-30T05:03:15.680Z,2.58
2024-04-30T05:04:15.788Z,2.58
2024-04-30T05:05:15.662Z,1.96
2024-04-30T05:06:15.642Z,2.48
2024-04-30T05:07:15.662Z,1.75
2024-04-30T05:08:15.615Z,2.06
2024-04-30T05:09:15.607Z,2.27
2024-04-30T05:10:15.608Z,2.69
2024-04-30T05:11:15.736Z,2.69
2024-04-30T05:12:15.559Z,2.69
2024-04-30T05:13:15.587Z,3.09
2024-04-30T05:14:15.535Z,1.85
2024-04-30T05:15:15.520Z,3.20
2024-04-30T05:16:15.552Z,2.79
2024-04-30T05:17:15.546Z,2.69
2024-04-30T05:18:15.522Z,2.48
2024-04-30T05:19:15.483Z,2.69
2024-04-30T05:20:15.482Z,2.17
2024-04-30T05:21:15.450Z,2.06
2024-04-30T05:22:15.460Z,1.64
2024-04-30T05:23:15.440Z,1.54
2024-04-30T05:24:15.403Z,2.79
2024-04-30T05:25:15.434Z,2.99
2024-04-30T05:26:15.372Z,2.48
2024-04-30T05:27:15.364Z,3.70
2024-04-30T05:28:15.388Z,3.09
2024-04-30T05:29:15.339Z,3.09
2024-04-30T05:30:15.347Z,3.40
2024-04-30T05:31:15.385Z,3.80
2024-04-30T05:32:15.297Z,4.30
2024-04-30T05:33:15.388Z,2.79
2024-04-30T05:34:15.308Z,3.70
2024-04-30T05:35:15.260Z,3.90
2024-04-30T05:36:15.274Z,3.90
2024-04-30T05:37:15.283Z,3.70
2024-04-30T05:38:15.221Z,4.00
2024-04-30T05:39:15.225Z,4.30
2024-04-30T05:40:15.232Z,0.00
2024-04-30T05:41:15.173Z,0.00
2024-04-30T05:42:15.174Z,0.00
2024-04-30T05:43:15.181Z,0.00
2024-04-30T05:44:15.138Z,0.00
2024-04-30T05:45:15.120Z,0.00
2024-04-30T05:46:15.176Z,0.00
2024-04-30T05:47:15.144Z,0.00
2024-04-30T05:48:15.086Z,0.00
2024-04-30T05:49:15.091Z,0.00
2024-04-30T05:50:15.052Z,0.00
2024-04-30T05:51:15.044Z,0.00
2024-04-30T05:52:15.057Z,0.00
2024-04-30T05:53:15.071Z,0.00
2024-04-30T05:54:15.008Z,0.00
2024-04-30T05:55:15.030Z,0.00
2024-04-30T05:56:14.976Z,0.00
2024-04-30T05:57:14.972Z,0.00
2024-04-30T05:58:14.973Z,0.00
2024-04-30T05:59:14.953Z,0.00
2024-04-30T06:00:14.932Z,0.00
2024-04-30T06:01:15.048Z,0.00
2024-04-30T06:02:14.901Z,0.00
2024-04-30T06:03:14.896Z,0.00
2024-04-30T06:04:14.922Z,0.00
2024-04-30T06:05:15.146Z,0.00
2024-04-30T06:06:14.842Z,0.00
2024-04-30T06:07:14.862Z,0.00
2024-04-30T06:08:14.819Z,0.00
2024-04-30T06:09:14.818Z,0.00
2024-04-30T06:10:14.800Z,0.00
2024-04-30T06:11:14.831Z,0.00
2024-04-30T06:12:14.783Z,0.00
2024-04-30T06:13:14.776Z,0.00
2024-04-30T06:14:14.759Z,0.00
2024-04-30T06:15:14.731Z,0.00
2024-04-30T06:16:14.736Z,0.79
2024-04-30T06:17:14.719Z,0.00
2024-04-30T06:18:14.781Z,0.00
2024-04-30T06:19:14.700Z,0.00
2024-04-30T06:20:14.661Z,0.00
2024-04-30T06:21:19.849Z,0.00
2024-04-30T06:22:16.665Z,0.00
2024-04-30T06:23:14.628Z,0.00
2024-04-30T06:24:14.626Z,0.00
2024-04-30T06:25:14.614Z,0.00
2024-04-30T06:26:14.577Z,0.47
2024-04-30T06:27:14.582Z,0.00
2024-04-30T06:28:14.607Z,0.00
2024-04-30T06:29:14.539Z,0.00
2024-04-30T06:30:14.533Z,0.00
2024-04-30T06:31:14.570Z,11.04
2024-04-30T06:32:14.512Z,0.47
2024-04-30T06:33:14.616Z,0.00
2024-04-30T06:34:14.591Z,0.00
2024-04-30T06:35:14.463Z,3.70
2024-04-30T06:36:14.450Z,1.96
2024-04-30T06:37:14.466Z,0.00
2024-04-30T06:38:14.426Z,0.90
2024-04-30T06:39:14.412Z,5.47
2024-04-30T06:40:14.423Z,11.96
2024-04-30T06:41:14.388Z,3.40
2024-04-30T06:42:20.389Z,0.00
2024-04-30T06:43:14.383Z,2.58
2024-04-30T06:44:14.348Z,15.22
2024-04-30T06:45:14.332Z,0.00
2024-04-30T06:46:14.331Z,0.00
2024-04-30T06:47:14.318Z,0.00
2024-04-30T06:48:14.344Z,19.00
2024-04-30T06:49:14.288Z,6.33
2024-04-30T06:50:14.274Z,0.00
2024-04-30T06:51:14.259Z,0.00
2024-04-30T06:52:14.257Z,0.00
2024-04-30T06:53:14.226Z,0.00
2024-04-30T06:54:14.213Z,0.00
2024-04-30T06:55:14.253Z,0.00
2024-04-30T06:56:14.197Z,0.00
2024-04-30T06:57:14.183Z,0.00
2024-04-30T06:58:14.189Z,0.00
2024-04-30T06:59:14.155Z,0.00
2024-04-30T07:00:14.134Z,0.00
2024-04-30T07:01:14.142Z,0.00
2024-04-30T07:02:14.128Z,0.47
2024-04-30T07:03:14.109Z,14.36
2024-04-30T07:04:14.209Z,0.00
2024-04-30T07:05:14.189Z,11.21
2024-04-30T07:06:14.056Z,9.85
2024-04-30T07:07:14.070Z,15.06
2024-04-30T07:08:14.033Z,15.22
2024-04-30T07:09:14.019Z,15.22
2024-04-30T07:10:14.041Z,14.68
2024-04-30T07:11:14.033Z,16.88
2024-04-30T07:12:13.978Z,15.98
2024-04-30T07:13:14.014Z,17.18
2024-04-30T07:14:13.980Z,16.35
2024-04-30T07:15:13.943Z,19.07
2024-04-30T07:16:13.955Z,18.35
2024-04-30T07:17:13.964Z,21.42
2024-04-30T07:18:13.944Z,20.86
2024-04-30T07:19:13.907Z,18.86
2024-04-30T07:20:13.900Z,14.29
2024-04-30T07:21:13.865Z,20.08
2024-04-30T07:22:13.880Z,18.71
2024-04-30T07:23:13.839Z,19.93
2024-04-30T07:24:13.836Z,20.15
2024-04-30T07:25:13.832Z,19.50
2024-04-30T07:26:16.782Z,20.01
2024-04-30T07:27:13.794Z,20.15
2024-04-30T07:28:13.803Z,15.37
2024-04-30T07:29:13.763Z,18.06
2024-04-30T07:30:13.767Z,16.88
2024-04-30T07:31:13.761Z,23.45
2024-04-30T07:32:13.755Z,20.08
2024-04-30T07:33:13.784Z,21.21
2024-04-30T07:34:13.784Z,21.14
2024-04-30T07:35:13.689Z,20.64
2024-04-30T07:36:13.675Z,18.79
2024-04-30T07:37:13.685Z,18.20
2024-04-30T07:38:13.648Z,17.99
2024-04-30T07:39:13.645Z,18.20
2024-04-30T07:40:13.636Z,16.95
2024-04-30T07:41:13.632Z,17.69
2024-04-30T07:42:13.601Z,16.80
2024-04-30T07:43:13.586Z,17.55
2024-04-30T07:44:13.577Z,19.50
2024-04-30T07:45:13.561Z,20.29
2024-04-30T07:46:13.616Z,20.86
2024-04-30T07:47:13.543Z,22.40
2024-04-30T07:48:13.678Z,22.19
2024-04-30T07:49:13.535Z,20.29
2024-04-30T07:50:13.507Z,19.86
2024-04-30T07:52:13.531Z,24.42
2024-04-30T07:53:13.459Z,24.22
2024-04-30T07:54:13.464Z,24.29
2024-04-30T07:55:13.478Z,18.71
2024-04-30T07:56:13.455Z,24.29
2024-04-30T07:57:13.413Z,25.05
2024-04-30T07:58:13.418Z,24.42
2024-04-30T07:59:13.401Z,27.23
2024-04-30T08:00:13.387Z,26.38
2024-04-30T08:01:13.549Z,24.42
2024-04-30T08:02:14.913Z,24.91
2024-04-30T08:03:13.571Z,25.68
2024-04-30T08:04:13.428Z,27.01
2024-04-30T08:05:13.315Z,26.45
2024-04-30T08:06:18.719Z,23.24
2024-04-30T08:07:15.335Z,27.65
2024-04-30T08:08:13.277Z,26.03
2024-04-30T08:09:13.259Z,21.35
2024-04-30T08:10:13.301Z,18.57
2024-04-30T08:11:13.289Z,12.77
2024-04-30T08:12:13.226Z,16.80
2024-04-30T08:13:13.234Z,19.07
2024-04-30T08:14:13.207Z,15.83
2024-04-30T08:15:13.200Z,17.77
2024-04-30T08:16:13.284Z,12.45
2024-04-30T08:17:13.232Z,16.13
2024-04-30T08:18:13.293Z,8.17
2024-04-30T08:19:13.161Z,11.21
2024-04-30T08:20:13.140Z,8.08
2024-04-30T08:21:13.154Z,4.69
2024-04-30T08:22:13.158Z,3.60
2024-04-30T08:23:13.089Z,5.57
2024-04-30T08:24:13.096Z,5.47
2024-04-30T08:25:13.089Z,0.47
2024-04-30T08:26:13.049Z,0.00
2024-04-30T08:27:13.052Z,0.00
2024-04-30T08:28:13.053Z,0.00
2024-04-30T08:29:13.013Z,0.00
2024-04-30T08:30:13.001Z,0.00
2024-04-30T08:31:13.013Z,0.00
2024-04-30T08:32:12.980Z,0.00
2024-04-30T08:33:13.014Z,0.00
2024-04-30T08:34:13.001Z,0.00
2024-04-30T08:35:12.939Z,0.00
2024-04-30T08:36:12.929Z,0.00
2024-04-30T08:37:12.959Z,0.68
2024-04-30T08:38:12.985Z,0.00
2024-04-30T08:39:12.908Z,0.00
2024-04-30T08:40:12.924Z,0.00
2024-04-30T08:41:12.917Z,0.00
2024-04-30T08:42:12.866Z,0.00
2024-04-30T08:43:12.861Z,0.00
2024-04-30T08:44:12.841Z,0.00
2024-04-30T08:45:12.818Z,0.00
2024-04-30T08:46:12.891Z,0.00
2024-04-30T08:47:12.982Z,0.00
2024-04-30T08:48:12.912Z,0.00
2024-04-30T08:49:20.067Z,0.00
2024-04-30T08:50:16.666Z,0.00
2024-04-30T08:51:12.782Z,0.00
2024-04-30T08:52:12.764Z,0.58
2024-04-30T08:53:12.717Z,0.00
2024-04-30T08:54:12.707Z,0.00
2024-04-30T08:55:12.712Z,0.00
2024-04-30T08:56:12.849Z,0.00
2024-04-30T08:57:12.687Z,0.00
2024-04-30T08:58:12.679Z,0.00
2024-04-30T08:59:12.644Z,0.00
2024-04-30T09:00:12.631Z,0.58
2024-04-30T09:01:12.704Z,0.00
2024-04-30T09:02:12.668Z,0.00
2024-04-30T09:03:12.780Z,0.00
2024-04-30T09:04:12.747Z,0.00
2024-04-30T09:05:12.578Z,0.00
2024-04-30T09:06:12.587Z,0.00
2024-04-30T09:07:12.568Z,0.00
2024-04-30T09:08:12.544Z,0.00
2024-04-30T09:09:12.523Z,0.00
2024-04-30T09:10:12.538Z,0.00
2024-04-30T09:11:12.529Z,0.00
2024-04-30T09:12:12.666Z,0.00
2024-04-30T09:13:12.528Z,0.00
2024-04-30T09:14:12.497Z,0.00
2024-04-30T09:15:12.460Z,0.00
2024-04-30T09:16:12.447Z,0.00
2024-04-30T09:17:12.545Z,0.58
2024-04-30T09:18:12.536Z,0.00
2024-04-30T09:19:12.420Z,0.00
2024-04-30T09:20:12.394Z,0.00
2024-04-30T09:21:17.187Z,0.00
2024-04-30T09:22:12.405Z,0.00
2024-04-30T09:23:12.377Z,0.00
2024-04-30T09:24:12.354Z,0.00
2024-04-30T09:25:12.428Z,0.00
2024-04-30T09:26:12.428Z,0.00
2024-04-30T09:27:18.323Z,0.00
2024-04-30T09:28:12.369Z,0.00
2024-04-30T09:29:12.291Z,0.00
2024-04-30T09:30:12.283Z,0.00
2024-04-30T09:31:12.444Z,0.00
2024-04-30T09:32:12.255Z,0.00
2024-04-30T09:33:12.445Z,0.00
2024-04-30T09:34:12.273Z,0.00
2024-04-30T09:35:12.221Z,0.00
2024-04-30T09:36:14.308Z,0.00
2024-04-30T09:37:12.220Z,0.00
2024-04-30T09:38:12.208Z,0.00
2024-04-30T09:39:12.223Z,0.00
2024-04-30T09:40:12.192Z,0.00
2024-04-30T09:41:12.296Z,0.00
2024-04-30T09:42:12.133Z,0.00
2024-04-30T09:43:12.154Z,0.00
2024-04-30T09:44:12.110Z,0.00
2024-04-30T09:45:12.098Z,0.00
2024-04-30T09:46:12.191Z,0.00
2024-04-30T09:47:12.118Z,0.68
2024-04-30T09:48:12.055Z,0.00
2024-04-30T09:49:12.084Z,0.00
2024-04-30T09:50:12.030Z,0.47
2024-04-30T09:51:12.015Z,0.00
2024-04-30T09:52:12.068Z,0.00
2024-04-30T09:53:12.041Z,0.00
2024-04-30T09:54:11.999Z,0.00
2024-04-30T09:55:11.992Z,0.00
2024-04-30T09:56:11.962Z,0.00
2024-04-30T09:57:11.952Z,0.00
2024-04-30T09:58:11.994Z,0.47
2024-04-30T09:59:11.915Z,0.00
2024-04-30T10:00:12.034Z,0.00
2024-04-30T10:01:12.098Z,0.00
2024-04-30T10:02:11.884Z,0.00
2024-04-30T10:03:12.061Z,0.00
2024-04-30T10:04:11.933Z,0.00
2024-04-30T10:05:11.912Z,0.00
2024-04-30T10:06:11.846Z,0.00
2024-04-30T10:07:11.895Z,0.00
2024-04-30T10:08:11.831Z,0.00
2024-04-30T10:09:11.801Z,0.00
2024-04-30T10:10:11.863Z,0.00
2024-04-30T10:11:11.834Z,0.00
2024-04-30T10:12:11.761Z,0.00
2024-04-30T10:13:11.877Z,0.00
2024-04-30T10:14:11.753Z,0.00
2024-04-30T10:15:11.728Z,0.00
2024-04-30T10:16:11.821Z,0.00
2024-04-30T10:17:11.860Z,0.00
2024-04-30T10:18:11.723Z,0.00
2024-04-30T10:19:11.714Z,0.00
2024-04-30T10:20:11.679Z,0.00
2024-04-30T10:21:11.708Z,0.00
2024-04-30T10:22:11.659Z,0.00
2024-04-30T10:23:11.640Z,0.47
2024-04-30T10:24:11.649Z,0.00
2024-04-30T10:25:11.684Z,0.00
2024-04-30T10:26:11.624Z,0.00
2024-04-30T10:27:11.592Z,0.00
2024-04-30T10:28:11.591Z,0.00
2024-04-30T10:29:11.572Z,0.00
2024-04-30T10:30:11.559Z,0.00
2024-04-30T10:31:11.614Z,0.00
2024-04-30T10:32:11.536Z,0.00
2024-04-30T10:33:11.541Z,0.00
2024-04-30T10:34:11.523Z,0.00
2024-04-30T10:35:11.502Z,0.00
2024-04-30T10:36:11.495Z,0.00
2024-04-30T10:37:11.531Z,0.00
2024-04-30T10:38:11.465Z,0.00
2024-04-30T10:39:11.460Z,0.00
2024-04-30T10:40:11.488Z,0.00
2024-04-30T10:41:11.477Z,0.00
2024-04-30T10:42:11.448Z,0.00
2024-04-30T10:43:11.423Z,0.00
2024-04-30T10:44:11.397Z,0.00
2024-04-30T10:45:11.385Z,0.00
2024-04-30T10:46:11.397Z,0.00
2024-04-30T10:47:11.374Z,1.33
2024-04-30T10:48:11.440Z,0.00
2024-04-30T10:49:11.377Z,0.00
2024-04-30T10:50:18.374Z,0.00
2024-04-30T10:51:13.321Z,0.00
2024-04-30T10:52:11.334Z,0.00
2024-04-30T10:53:11.298Z,0.00
2024-04-30T10:54:11.290Z,0.00
2024-04-30T10:55:11.289Z,0.00
2024-04-30T10:56:11.262Z,0.00
2024-04-30T10:57:11.251Z,0.00
2024-04-30T10:58:11.283Z,0.00
2024-04-30T10:59:11.221Z,0.00
2024-04-30T11:00:11.210Z,0.00
2024-04-30T11:01:11.256Z,0.00
2024-04-30T11:02:11.204Z,0.58
2024-04-30T11:03:11.217Z,0.00
2024-04-30T11:04:11.280Z,0.00
2024-04-30T11:05:11.228Z,0.00
2024-04-30T11:06:11.137Z,0.00
2024-04-30T11:07:11.174Z,0.00
2024-04-30T11:08:11.114Z,0.00
2024-04-30T11:09:11.106Z,0.00
2024-04-30T11:10:11.188Z,0.00
2024-04-30T11:11:11.140Z,0.00
2024-04-30T11:12:11.078Z,0.00
2024-04-30T11:13:11.061Z,0.00
2024-04-30T11:14:11.078Z,0.00
2024-04-30T11:15:11.027Z,0.00
2024-04-30T11:16:15.807Z,0.00
2024-04-30T11:17:11.006Z,0.00
2024-04-30T11:18:11.062Z,0.00
2024-04-30T11:19:12.906Z,0.00
2024-04-30T11:20:10.988Z,0.00
2024-04-30T11:21:10.959Z,0.00
2024-04-30T11:22:10.974Z,0.00
2024-04-30T11:23:10.933Z,0.00
2024-04-30T11:24:10.934Z,0.58
2024-04-30T11:25:10.943Z,0.00
2024-04-30T11:26:10.901Z,0.00
2024-04-30T11:27:10.912Z,0.00
2024-04-30T11:28:10.891Z,0.00
2024-04-30T11:29:23.810Z,0.00
2024-04-30T11:30:12.880Z,0.00
2024-04-30T11:31:10.894Z,0.00
2024-04-30T11:32:10.877Z,0.00
2024-04-30T11:33:10.905Z,0.00
2024-04-30T11:34:10.846Z,0.00
2024-04-30T11:35:10.810Z,0.00
2024-04-30T11:36:10.805Z,0.00
2024-04-30T11:37:10.826Z,0.00
2024-04-30T11:38:10.869Z,0.00
2024-04-30T11:39:13.714Z,0.00
2024-04-30T11:40:10.789Z,0.00
2024-04-30T11:41:10.729Z,0.00
2024-04-30T11:42:18.406Z,0.00
2024-04-30T11:43:12.733Z,0.00
2024-04-30T11:44:10.694Z,0.00
2024-04-30T11:45:10.688Z,0.00
2024-04-30T11:46:10.689Z,0.00
2024-04-30T11:47:10.696Z,0.68
2024-04-30T11:48:10.701Z,0.00
2024-04-30T11:49:10.646Z,0.00
2024-04-30T11:50:10.648Z,0.00
2024-04-30T11:51:10.622Z,0.00
2024-04-30T11:52:10.647Z,0.00
2024-04-30T11:53:10.723Z,0.00
2024-04-30T11:54:10.667Z,0.00
2024-04-30T11:55:10.633Z,0.00
2024-04-30T11:56:10.583Z,0.00
2024-04-30T11:57:10.561Z,0.00
2024-04-30T11:58:10.575Z,0.00
2024-04-30T11:59:10.534Z,0.00
2024-04-30T12:00:10.514Z,0.00
2024-04-30T12:01:10.615Z,0.00
2024-04-30T12:02:10.681Z,0.00
2024-04-30T12:03:10.482Z,0.00
2024-04-30T12:04:10.512Z,0.00
2024-04-30T12:05:10.544Z,0.00
2024-04-30T12:06:10.453Z,0.00
2024-04-30T12:07:10.458Z,0.00
2024-04-30T12:08:10.423Z,0.00
2024-04-30T12:09:10.423Z,0.00
2024-04-30T12:10:10.550Z,0.00
2024-04-30T12:11:10.411Z,0.00
2024-04-30T12:12:10.394Z,0.00
2024-04-30T12:13:10.379Z,0.00
2024-04-30T12:14:10.358Z,0.00
2024-04-30T12:15:10.338Z,0.00
2024-04-30T12:16:10.410Z,0.00
2024-04-30T12:17:10.406Z,0.47
2024-04-30T12:18:10.395Z,0.00
2024-04-30T12:19:10.340Z,0.00
2024-04-30T12:20:10.278Z,0.00
2024-04-30T12:21:10.274Z,0.00
2024-04-30T12:22:10.368Z,0.00
2024-04-30T12:23:10.264Z,0.00
2024-04-30T12:24:10.237Z,0.00
2024-04-30T12:25:10.299Z,0.00
2024-04-30T12:26:10.210Z,0.00
2024-04-30T12:27:10.200Z,0.00
2024-04-30T12:28:10.218Z,0.00
2024-04-30T12:29:10.198Z,0.00
2024-04-30T12:30:10.177Z,0.00
2024-04-30T12:31:10.179Z,0.00
2024-04-30T12:32:11.762Z,0.00
2024-04-30T12:33:10.161Z,0.00
2024-04-30T12:34:10.162Z,0.00
2024-04-30T12:35:10.129Z,0.00
2024-04-30T12:36:10.102Z,0.00
2024-04-30T12:37:10.114Z,0.00
2024-04-30T12:38:10.077Z,0.00
2024-04-30T12:39:10.065Z,0.00
2024-04-30T12:40:10.101Z,0.00
2024-04-30T12:41:10.043Z,0.00
2024-04-30T12:42:10.030Z,0.00
2024-04-30T12:43:10.062Z,0.00
2024-04-30T12:44:10.196Z,0.00
2024-04-30T12:45:09.997Z,0.00
2024-04-30T12:46:10.013Z,0.00
2024-04-30T12:47:09.975Z,0.00
2024-04-30T12:48:10.059Z,0.00
2024-04-30T12:49:09.972Z,0.00
2024-04-30T12:50:09.954Z,0.00
2024-04-30T12:51:09.929Z,0.00
2024-04-30T12:52:09.974Z,0.00
2024-04-30T12:53:09.903Z,0.00
2024-04-30T12:54:09.891Z,0.00
2024-04-30T12:55:09.893Z,0.00
2024-04-30T12:56:09.870Z,0.00
2024-04-30T12:57:09.870Z,0.00
2024-04-30T12:58:09.872Z,0.00
2024-04-30T12:59:09.831Z,0.00
2024-04-30T13:00:09.826Z,0.00
2024-04-30T13:01:09.880Z,0.00
2024-04-30T13:02:09.804Z,0.00
2024-04-30T13:03:09.894Z,0.00
2024-04-30T13:04:09.830Z,0.00
2024-04-30T13:05:09.874Z,0.00
2024-04-30T13:06:09.774Z,0.00
2024-04-30T13:07:09.781Z,0.00
2024-04-30T13:08:09.736Z,0.00
2024-04-30T13:09:09.755Z,0.00